sensor_id;sensor_type;location;lat;lon;timestamp;P1;durP1;ratioP1;P2;durP2;ratioP2
62696;SDS011;48761;42.680;23.312;2022-09-09T00:00:31;8.00;;;6.40;;
62696;SDS011;48761;42.680;23.312;2022-09-09T00:03:08;8.30;;;5.80;;
62696;SDS011;48761;42.680;23.312;2022-09-09T00:09:21;8.93;;;6.40;;
62696;SDS011;48761;42.680;23.312;2022-09-09T00:11:26;9.18;;;6.63;;
62696;SDS011;48761;42.680;23.312;2022-09-09T00:14:02;11.27;;;6.80;;
62696;SDS011;48761;42.680;23.312;2022-09-09T00:16:34;8.95;;;6.43;;
62696;SDS011;48761;42.680;23.312;2022-09-09T00:19:18;11.10;;;6.63;;
62696;SDS011;48761;42.680;23.312;2022-09-09T00:21:54;12.38;;;6.00;;
62696;SDS011;48761;42.680;23.312;2022-09-09T00:27:00;8.27;;;6.25;;
62696;SDS011;48761;42.680;23.312;2022-09-09T00:32:30;9.02;;;6.20;;
62696;SDS011;48761;42.680;23.312;2022-09-09T00:35:02;9.38;;;6.13;;
62696;SDS011;48761;42.680;23.312;2022-09-09T00:37:36;9.32;;;5.88;;
62696;SDS011;48761;42.680;23.312;2022-09-09T00:40:05;9.20;;;6.57;;
62696;SDS011;48761;42.680;23.312;2022-09-09T00:42:44;8.43;;;6.55;;
62696;SDS011;48761;42.680;23.312;2022-09-09T00:52:46;8.13;;;6.10;;
62696;SDS011;48761;42.680;23.312;2022-09-09T00:58:09;7.53;;;6.15;;
62696;SDS011;48761;42.680;23.312;2022-09-09T01:00:37;9.77;;;6.57;;
62696;SDS011;48761;42.680;23.312;2022-09-09T01:12:01;8.68;;;6.40;;
62696;SDS011;48761;42.680;23.312;2022-09-09T01:17:11;8.82;;;6.28;;
62696;SDS011;48761;42.680;23.312;2022-09-09T01:22:39;6.72;;;6.00;;
62696;SDS011;48761;42.680;23.312;2022-09-09T01:25:29;8.00;;;6.25;;
62696;SDS011;48761;42.680;23.312;2022-09-09T01:28:15;7.47;;;6.22;;
62696;SDS011;48761;42.680;23.312;2022-09-09T01:30:44;8.23;;;6.13;;
62696;SDS011;48761;42.680;23.312;2022-09-09T01:33:15;9.55;;;6.07;;
62696;SDS011;48761;42.680;23.312;2022-09-09T01:38:52;7.72;;;6.07;;
62696;SDS011;48761;42.680;23.312;2022-09-09T01:41:18;8.32;;;6.20;;
62696;SDS011;48761;42.680;23.312;2022-09-09T01:43:44;7.80;;;6.35;;
62696;SDS011;48761;42.680;23.312;2022-09-09T01:46:10;9.82;;;6.75;;
62696;SDS011;48761;42.680;23.312;2022-09-09T01:48:37;7.05;;;5.97;;
62696;SDS011;48761;42.680;23.312;2022-09-09T01:51:05;8.05;;;6.80;;
62696;SDS011;48761;42.680;23.312;2022-09-09T01:53:30;10.80;;;5.88;;
62696;SDS011;48761;42.680;23.312;2022-09-09T02:01:46;8.98;;;6.32;;
62696;SDS011;48761;42.680;23.312;2022-09-09T02:04:36;9.48;;;5.97;;
62696;SDS011;48761;42.680;23.312;2022-09-09T02:10:16;7.75;;;6.32;;
62696;SDS011;48761;42.680;23.312;2022-09-09T02:12:48;6.85;;;6.13;;
62696;SDS011;48761;42.680;23.312;2022-09-09T02:15:52;7.55;;;5.88;;
62696;SDS011;48761;42.680;23.312;2022-09-09T02:18:34;9.23;;;6.72;;
62696;SDS011;48761;42.680;23.312;2022-09-09T02:21:06;9.07;;;6.43;;
62696;SDS011;48761;42.680;23.312;2022-09-09T02:23:33;7.95;;;5.70;;
62696;SDS011;48761;42.680;23.312;2022-09-09T02:26:01;8.77;;;6.45;;
62696;SDS011;48761;42.680;23.312;2022-09-09T02:28:28;7.20;;;6.05;;
62696;SDS011;48761;42.680;23.312;2022-09-09T02:30:55;9.43;;;6.43;;
62696;SDS011;48761;42.680;23.312;2022-09-09T02:33:25;9.05;;;6.57;;
62696;SDS011;48761;42.680;23.312;2022-09-09T02:35:54;10.25;;;5.90;;
62696;SDS011;48761;42.680;23.312;2022-09-09T02:38:22;9.10;;;6.70;;
62696;SDS011;48761;42.680;23.312;2022-09-09T02:40:53;8.45;;;6.30;;
62696;SDS011;48761;42.680;23.312;2022-09-09T02:43:19;8.20;;;6.63;;
62696;SDS011;48761;42.680;23.312;2022-09-09T02:45:53;9.93;;;6.50;;
62696;SDS011;48761;42.680;23.312;2022-09-09T02:48:51;9.63;;;6.75;;
62696;SDS011;48761;42.680;23.312;2022-09-09T02:51:24;8.02;;;6.50;;
62696;SDS011;48761;42.680;23.312;2022-09-09T02:54:10;8.30;;;6.45;;
62696;SDS011;48761;42.680;23.312;2022-09-09T02:56:42;7.25;;;6.45;;
62696;SDS011;48761;42.680;23.312;2022-09-09T02:59:13;8.48;;;6.35;;
62696;SDS011;48761;42.680;23.312;2022-09-09T03:01:40;8.85;;;6.70;;
62696;SDS011;48761;42.680;23.312;2022-09-09T03:04:05;7.95;;;6.50;;
62696;SDS011;48761;42.680;23.312;2022-09-09T03:06:31;11.43;;;6.38;;
62696;SDS011;48761;42.680;23.312;2022-09-09T03:08:57;9.70;;;6.28;;
62696;SDS011;48761;42.680;23.312;2022-09-09T03:11:23;9.88;;;6.63;;
62696;SDS011;48761;42.680;23.312;2022-09-09T03:13:49;8.73;;;6.93;;
62696;SDS011;48761;42.680;23.312;2022-09-09T03:16:15;8.73;;;6.82;;
62696;SDS011;48761;42.680;23.312;2022-09-09T03:18:41;7.53;;;6.22;;
62696;SDS011;48761;42.680;23.312;2022-09-09T03:21:06;8.05;;;6.03;;
62696;SDS011;48761;42.680;23.312;2022-09-09T03:23:32;7.20;;;6.32;;
62696;SDS011;48761;42.680;23.312;2022-09-09T03:25:58;7.88;;;6.68;;
62696;SDS011;48761;42.680;23.312;2022-09-09T03:28:24;7.65;;;6.25;;
62696;SDS011;48761;42.680;23.312;2022-09-09T03:30:50;7.70;;;6.25;;
62696;SDS011;48761;42.680;23.312;2022-09-09T03:33:16;7.70;;;6.03;;
62696;SDS011;48761;42.680;23.312;2022-09-09T03:35:46;7.65;;;6.18;;
62696;SDS011;48761;42.680;23.312;2022-09-09T03:38:12;7.72;;;6.38;;
62696;SDS011;48761;42.680;23.312;2022-09-09T03:40:38;9.02;;;6.80;;
62696;SDS011;48761;42.680;23.312;2022-09-09T03:43:04;8.55;;;6.93;;
62696;SDS011;48761;42.680;23.312;2022-09-09T03:45:29;8.43;;;6.80;;
62696;SDS011;48761;42.680;23.312;2022-09-09T03:47:55;10.70;;;7.43;;
62696;SDS011;48761;42.680;23.312;2022-09-09T03:50:21;9.27;;;6.75;;
62696;SDS011;48761;42.680;23.312;2022-09-09T03:52:47;8.77;;;7.00;;
62696;SDS011;48761;42.680;23.312;2022-09-09T03:55:13;7.93;;;6.43;;
62696;SDS011;48761;42.680;23.312;2022-09-09T03:57:39;9.95;;;7.07;;
62696;SDS011;48761;42.680;23.312;2022-09-09T04:00:05;7.80;;;6.07;;
62696;SDS011;48761;42.680;23.312;2022-09-09T04:02:33;10.45;;;6.30;;
62696;SDS011;48761;42.680;23.312;2022-09-09T04:04:58;7.82;;;6.40;;
62696;SDS011;48761;42.680;23.312;2022-09-09T04:07:24;8.30;;;6.30;;
62696;SDS011;48761;42.680;23.312;2022-09-09T04:09:50;8.23;;;6.18;;
62696;SDS011;48761;42.680;23.312;2022-09-09T04:12:17;6.72;;;5.97;;
62696;SDS011;48761;42.680;23.312;2022-09-09T04:14:43;8.02;;;6.43;;
62696;SDS011;48761;42.680;23.312;2022-09-09T04:17:10;8.35;;;6.82;;
62696;SDS011;48761;42.680;23.312;2022-09-09T04:19:36;10.95;;;7.55;;
62696;SDS011;48761;42.680;23.312;2022-09-09T04:22:03;8.48;;;6.90;;
62696;SDS011;48761;42.680;23.312;2022-09-09T04:24:29;9.38;;;7.63;;
62696;SDS011;48761;42.680;23.312;2022-09-09T04:26:55;11.55;;;7.13;;
62696;SDS011;48761;42.680;23.312;2022-09-09T04:29:21;12.07;;;6.65;;
62696;SDS011;48761;42.680;23.312;2022-09-09T04:31:47;8.75;;;6.45;;
62696;SDS011;48761;42.680;23.312;2022-09-09T04:34:13;8.65;;;7.30;;
62696;SDS011;48761;42.680;23.312;2022-09-09T04:36:39;8.85;;;6.50;;
62696;SDS011;48761;42.680;23.312;2022-09-09T04:39:04;8.80;;;6.85;;
62696;SDS011;48761;42.680;23.312;2022-09-09T04:41:30;8.27;;;6.95;;
62696;SDS011;48761;42.680;23.312;2022-09-09T04:43:56;10.80;;;7.30;;
62696;SDS011;48761;42.680;23.312;2022-09-09T04:46:22;12.30;;;7.80;;
62696;SDS011;48761;42.680;23.312;2022-09-09T04:48:49;13.43;;;8.98;;
62696;SDS011;48761;42.680;23.312;2022-09-09T04:51:15;18.30;;;7.78;;
62696;SDS011;48761;42.680;23.312;2022-09-09T04:53:41;14.90;;;9.05;;
62696;SDS011;48761;42.680;23.312;2022-09-09T04:56:08;11.82;;;8.73;;
62696;SDS011;48761;42.680;23.312;2022-09-09T04:58:36;13.30;;;9.32;;
62696;SDS011;48761;42.680;23.312;2022-09-09T05:01:06;13.73;;;9.07;;
62696;SDS011;48761;42.680;23.312;2022-09-09T05:03:34;12.32;;;9.10;;
62696;SDS011;48761;42.680;23.312;2022-09-09T05:06:06;15.38;;;9.70;;
62696;SDS011;48761;42.680;23.312;2022-09-09T05:08:37;13.52;;;9.25;;
62696;SDS011;48761;42.680;23.312;2022-09-09T05:11:19;15.15;;;9.18;;
62696;SDS011;48761;42.680;23.312;2022-09-09T05:13:52;11.82;;;9.38;;
62696;SDS011;48761;42.680;23.312;2022-09-09T05:16:24;12.90;;;9.80;;
62696;SDS011;48761;42.680;23.312;2022-09-09T05:18:50;15.03;;;9.63;;
62696;SDS011;48761;42.680;23.312;2022-09-09T05:21:17;14.23;;;8.35;;
62696;SDS011;48761;42.680;23.312;2022-09-09T05:23:44;11.38;;;9.25;;
62696;SDS011;48761;42.680;23.312;2022-09-09T05:26:14;11.82;;;9.20;;
62696;SDS011;48761;42.680;23.312;2022-09-09T05:28:41;11.77;;;8.07;;
62696;SDS011;48761;42.680;23.312;2022-09-09T05:31:08;13.75;;;8.15;;
62696;SDS011;48761;42.680;23.312;2022-09-09T05:33:35;10.73;;;7.55;;
62696;SDS011;48761;42.680;23.312;2022-09-09T05:36:02;11.32;;;7.85;;
62696;SDS011;48761;42.680;23.312;2022-09-09T05:38:30;11.10;;;7.50;;
62696;SDS011;48761;42.680;23.312;2022-09-09T05:40:57;10.25;;;7.78;;
62696;SDS011;48761;42.680;23.312;2022-09-09T05:43:23;9.63;;;6.75;;
62696;SDS011;48761;42.680;23.312;2022-09-09T05:46:03;11.07;;;7.53;;
62696;SDS011;48761;42.680;23.312;2022-09-09T05:48:34;12.70;;;6.82;;
62696;SDS011;48761;42.680;23.312;2022-09-09T05:51:01;12.40;;;7.10;;
62696;SDS011;48761;42.680;23.312;2022-09-09T05:53:27;10.85;;;7.15;;
62696;SDS011;48761;42.680;23.312;2022-09-09T05:55:58;11.35;;;6.88;;
62696;SDS011;48761;42.680;23.312;2022-09-09T05:58:27;9.20;;;6.68;;
62696;SDS011;48761;42.680;23.312;2022-09-09T06:00:59;8.98;;;6.50;;
62696;SDS011;48761;42.680;23.312;2022-09-09T06:03:28;11.90;;;6.93;;
62696;SDS011;48761;42.680;23.312;2022-09-09T06:06:01;9.70;;;6.93;;
62696;SDS011;48761;42.680;23.312;2022-09-09T06:08:35;11.82;;;6.43;;
62696;SDS011;48761;42.680;23.312;2022-09-09T06:11:03;11.05;;;6.97;;
62696;SDS011;48761;42.680;23.312;2022-09-09T06:13:33;13.05;;;7.45;;
62696;SDS011;48761;42.680;23.312;2022-09-09T06:16:00;10.07;;;6.80;;
62696;SDS011;48761;42.680;23.312;2022-09-09T06:18:26;10.57;;;6.93;;
62696;SDS011;48761;42.680;23.312;2022-09-09T06:20:53;9.10;;;6.72;;
62696;SDS011;48761;42.680;23.312;2022-09-09T06:23:26;9.15;;;6.53;;
62696;SDS011;48761;42.680;23.312;2022-09-09T06:26:03;8.73;;;6.03;;
62696;SDS011;48761;42.680;23.312;2022-09-09T06:28:34;8.93;;;5.73;;
62696;SDS011;48761;42.680;23.312;2022-09-09T06:31:02;7.97;;;6.22;;
62696;SDS011;48761;42.680;23.312;2022-09-09T06:33:33;11.13;;;6.20;;
62696;SDS011;48761;42.680;23.312;2022-09-09T06:36:00;6.97;;;5.50;;
62696;SDS011;48761;42.680;23.312;2022-09-09T06:38:27;9.95;;;5.90;;
62696;SDS011;48761;42.680;23.312;2022-09-09T06:40:53;7.07;;;5.40;;
62696;SDS011;48761;42.680;23.312;2022-09-09T06:43:21;8.43;;;5.60;;
62696;SDS011;48761;42.680;23.312;2022-09-09T06:48:23;7.28;;;5.90;;
62696;SDS011;48761;42.680;23.312;2022-09-09T06:50:49;10.43;;;5.95;;
62696;SDS011;48761;42.680;23.312;2022-09-09T06:53:16;6.93;;;5.55;;
62696;SDS011;48761;42.680;23.312;2022-09-09T06:55:42;10.70;;;5.80;;
62696;SDS011;48761;42.680;23.312;2022-09-09T06:58:08;8.45;;;5.45;;
62696;SDS011;48761;42.680;23.312;2022-09-09T07:00:34;8.68;;;5.43;;
62696;SDS011;48761;42.680;23.312;2022-09-09T07:03:00;8.43;;;5.97;;
62696;SDS011;48761;42.680;23.312;2022-09-09T07:05:26;9.93;;;5.65;;
62696;SDS011;48761;42.680;23.312;2022-09-09T07:07:52;8.50;;;5.82;;
62696;SDS011;48761;42.680;23.312;2022-09-09T07:10:18;8.48;;;5.63;;
62696;SDS011;48761;42.680;23.312;2022-09-09T07:12:44;9.48;;;5.75;;
62696;SDS011;48761;42.680;23.312;2022-09-09T07:15:10;7.47;;;5.72;;
62696;SDS011;48761;42.680;23.312;2022-09-09T07:17:36;6.75;;;5.65;;
62696;SDS011;48761;42.680;23.312;2022-09-09T07:20:02;8.15;;;5.88;;
62696;SDS011;48761;42.680;23.312;2022-09-09T07:22:28;7.05;;;5.57;;
62696;SDS011;48761;42.680;23.312;2022-09-09T07:24:54;7.78;;;5.53;;
62696;SDS011;48761;42.680;23.312;2022-09-09T07:27:19;8.18;;;5.57;;
62696;SDS011;48761;42.680;23.312;2022-09-09T07:29:45;6.47;;;4.95;;
62696;SDS011;48761;42.680;23.312;2022-09-09T07:32:11;6.20;;;5.05;;
62696;SDS011;48761;42.680;23.312;2022-09-09T07:34:37;8.55;;;5.40;;
62696;SDS011;48761;42.680;23.312;2022-09-09T07:37:03;7.25;;;5.32;;
62696;SDS011;48761;42.680;23.312;2022-09-09T07:39:29;7.00;;;5.55;;
62696;SDS011;48761;42.680;23.312;2022-09-09T07:41:55;7.95;;;5.38;;
62696;SDS011;48761;42.680;23.312;2022-09-09T07:44:22;7.47;;;5.07;;
62696;SDS011;48761;42.680;23.312;2022-09-09T07:46:49;7.35;;;5.53;;
62696;SDS011;48761;42.680;23.312;2022-09-09T07:49:15;7.95;;;5.38;;
62696;SDS011;48761;42.680;23.312;2022-09-09T07:51:42;7.65;;;5.53;;
62696;SDS011;48761;42.680;23.312;2022-09-09T07:54:10;8.80;;;5.57;;
62696;SDS011;48761;42.680;23.312;2022-09-09T07:56:39;7.32;;;5.38;;
62696;SDS011;48761;42.680;23.312;2022-09-09T07:59:05;8.27;;;5.72;;
62696;SDS011;48761;42.680;23.312;2022-09-09T08:01:33;9.80;;;5.25;;
62696;SDS011;48761;42.680;23.312;2022-09-09T08:04:01;8.40;;;5.60;;
62696;SDS011;48761;42.680;23.312;2022-09-09T08:06:34;8.55;;;5.18;;
62696;SDS011;48761;42.680;23.312;2022-09-09T08:09:03;7.35;;;5.10;;
62696;SDS011;48761;42.680;23.312;2022-09-09T08:11:29;10.13;;;5.55;;
62696;SDS011;48761;42.680;23.312;2022-09-09T08:13:56;6.63;;;4.70;;
62696;SDS011;48761;42.680;23.312;2022-09-09T08:16:23;8.50;;;5.43;;
62696;SDS011;48761;42.680;23.312;2022-09-09T08:18:51;6.35;;;5.43;;
62696;SDS011;48761;42.680;23.312;2022-09-09T08:21:19;7.88;;;5.20;;
62696;SDS011;48761;42.680;23.312;2022-09-09T08:23:50;7.05;;;5.22;;
62696;SDS011;48761;42.680;23.312;2022-09-09T08:26:18;7.30;;;5.47;;
62696;SDS011;48761;42.680;23.312;2022-09-09T08:28:46;8.95;;;6.45;;
62696;SDS011;48761;42.680;23.312;2022-09-09T08:31:13;10.38;;;9.40;;
62696;SDS011;48761;42.680;23.312;2022-09-09T08:33:42;14.13;;;12.70;;
62696;SDS011;48761;42.680;23.312;2022-09-09T08:36:09;16.67;;;15.10;;
62696;SDS011;48761;42.680;23.312;2022-09-09T08:38:37;15.30;;;13.90;;
62696;SDS011;48761;42.680;23.312;2022-09-09T08:41:29;19.25;;;17.60;;
62696;SDS011;48761;42.680;23.312;2022-09-09T08:44:01;21.30;;;19.60;;
62696;SDS011;48761;42.680;23.312;2022-09-09T09:08:43;19.05;;;17.48;;
62696;SDS011;48761;42.680;23.312;2022-09-09T09:11:16;18.05;;;16.55;;
62696;SDS011;48761;42.680;23.312;2022-09-09T09:13:47;16.80;;;15.38;;
62696;SDS011;48761;42.680;23.312;2022-09-09T09:16:24;15.65;;;14.35;;
62696;SDS011;48761;42.680;23.312;2022-09-09T09:18:56;14.95;;;13.52;;
62696;SDS011;48761;42.680;23.312;2022-09-09T09:21:44;13.82;;;12.63;;
62696;SDS011;48761;42.680;23.312;2022-09-09T09:24:19;12.38;;;11.15;;
62696;SDS011;48761;42.680;23.312;2022-09-09T09:26:49;10.90;;;10.00;;
62696;SDS011;48761;42.680;23.312;2022-09-09T09:29:16;10.90;;;9.85;;
62696;SDS011;48761;42.680;23.312;2022-09-09T09:31:54;12.10;;;9.27;;
62696;SDS011;48761;42.680;23.312;2022-09-09T09:34:22;9.60;;;8.70;;
62696;SDS011;48761;42.680;23.312;2022-09-09T09:36:56;9.65;;;8.60;;
62696;SDS011;48761;42.680;23.312;2022-09-09T09:39:27;9.25;;;8.45;;
62696;SDS011;48761;42.680;23.312;2022-09-09T09:41:55;8.82;;;7.63;;
62696;SDS011;48761;42.680;23.312;2022-09-09T09:46:49;8.98;;;7.32;;
62696;SDS011;48761;42.680;23.312;2022-09-09T09:49:15;9.57;;;7.18;;
62696;SDS011;48761;42.680;23.312;2022-09-09T09:51:41;8.45;;;7.57;;
62696;SDS011;48761;42.680;23.312;2022-09-09T09:56:39;11.18;;;6.88;;
62696;SDS011;48761;42.680;23.312;2022-09-09T09:59:18;8.00;;;7.20;;
62696;SDS011;48761;42.680;23.312;2022-09-09T10:01:49;10.13;;;7.03;;
62696;SDS011;48761;42.680;23.312;2022-09-09T10:04:18;7.88;;;7.07;;
62696;SDS011;48761;42.680;23.312;2022-09-09T10:06:46;9.80;;;6.40;;
62696;SDS011;48761;42.680;23.312;2022-09-09T10:09:25;7.47;;;6.75;;
62696;SDS011;48761;42.680;23.312;2022-09-09T10:11:58;10.23;;;6.70;;
62696;SDS011;48761;42.680;23.312;2022-09-09T10:20:16;7.10;;;6.20;;
62696;SDS011;48761;42.680;23.312;2022-09-09T10:22:58;7.35;;;6.50;;
62696;SDS011;48761;42.680;23.312;2022-09-09T10:33:25;6.43;;;5.80;;
62696;SDS011;48761;42.680;23.312;2022-09-09T10:38:29;8.88;;;5.80;;
62696;SDS011;48761;42.680;23.312;2022-09-09T10:41:22;7.22;;;6.45;;
62696;SDS011;48761;42.680;23.312;2022-09-09T10:50:14;7.70;;;6.03;;
62696;SDS011;48761;42.680;23.312;2022-09-09T10:53:02;7.80;;;6.00;;
62696;SDS011;48761;42.680;23.312;2022-09-09T10:55:45;7.70;;;5.88;;
62696;SDS011;48761;42.680;23.312;2022-09-09T10:58:38;8.38;;;6.10;;
62696;SDS011;48761;42.680;23.312;2022-09-09T11:01:12;7.43;;;5.95;;
62696;SDS011;48761;42.680;23.312;2022-09-09T11:04:02;7.63;;;6.07;;
62696;SDS011;48761;42.680;23.312;2022-09-09T11:06:38;7.32;;;6.18;;
62696;SDS011;48761;42.680;23.312;2022-09-09T11:09:08;8.60;;;5.55;;
62696;SDS011;48761;42.680;23.312;2022-09-09T11:11:49;9.88;;;6.68;;
62696;SDS011;48761;42.680;23.312;2022-09-09T11:17:03;8.70;;;5.90;;
62696;SDS011;48761;42.680;23.312;2022-09-09T11:19:39;7.30;;;5.82;;
62696;SDS011;48761;42.680;23.312;2022-09-09T11:25:01;8.82;;;6.70;;
62696;SDS011;48761;42.680;23.312;2022-09-09T11:41:47;10.68;;;6.40;;
62696;SDS011;48761;42.680;23.312;2022-09-09T11:44:23;8.40;;;6.22;;
62696;SDS011;48761;42.680;23.312;2022-09-09T11:46:56;7.72;;;6.28;;
62696;SDS011;48761;42.680;23.312;2022-09-09T11:49:43;7.95;;;6.32;;
62696;SDS011;48761;42.680;23.312;2022-09-09T11:52:25;9.32;;;5.50;;
62696;SDS011;48761;42.680;23.312;2022-09-09T11:55:08;6.82;;;5.57;;
62696;SDS011;48761;42.680;23.312;2022-09-09T11:58:38;8.10;;;6.03;;
62696;SDS011;48761;42.680;23.312;2022-09-09T12:00:45;8.35;;;5.70;;
62696;SDS011;48761;42.680;23.312;2022-09-09T12:09:15;6.70;;;6.00;;
62696;SDS011;48761;42.680;23.312;2022-09-09T12:11:48;7.30;;;6.20;;
62696;SDS011;48761;42.680;23.312;2022-09-09T12:16:47;7.70;;;5.68;;
62696;SDS011;48761;42.680;23.312;2022-09-09T12:27:24;8.90;;;6.32;;
62696;SDS011;48761;42.680;23.312;2022-09-09T12:29:56;6.70;;;6.05;;
62696;SDS011;48761;42.680;23.312;2022-09-09T12:32:34;12.15;;;6.88;;
62696;SDS011;48761;42.680;23.312;2022-09-09T12:35:03;7.63;;;6.03;;
62696;SDS011;48761;42.680;23.312;2022-09-09T12:37:36;10.07;;;6.28;;
62696;SDS011;48761;42.680;23.312;2022-09-09T12:40:04;11.10;;;6.60;;
62696;SDS011;48761;42.680;23.312;2022-09-09T12:42:51;7.97;;;6.18;;
62696;SDS011;48761;42.680;23.312;2022-09-09T12:45:19;11.45;;;6.45;;
62696;SDS011;48761;42.680;23.312;2022-09-09T12:47:57;8.40;;;6.43;;
62696;SDS011;48761;42.680;23.312;2022-09-09T12:50:30;9.60;;;6.32;;
62696;SDS011;48761;42.680;23.312;2022-09-09T12:52:59;12.73;;;7.13;;
62696;SDS011;48761;42.680;23.312;2022-09-09T12:55:30;9.02;;;7.07;;
62696;SDS011;48761;42.680;23.312;2022-09-09T12:57:58;9.48;;;6.05;;
62696;SDS011;48761;42.680;23.312;2022-09-09T13:00:25;9.88;;;6.28;;
62696;SDS011;48761;42.680;23.312;2022-09-09T13:02:52;9.80;;;6.68;;
62696;SDS011;48761;42.680;23.312;2022-09-09T13:05:35;11.00;;;6.85;;
62696;SDS011;48761;42.680;23.312;2022-09-09T13:08:04;9.57;;;6.90;;
62696;SDS011;48761;42.680;23.312;2022-09-09T13:10:32;9.98;;;6.85;;
62696;SDS011;48761;42.680;23.312;2022-09-09T13:13:01;8.57;;;6.05;;
62696;SDS011;48761;42.680;23.312;2022-09-09T13:15:28;11.40;;;6.43;;
62696;SDS011;48761;42.680;23.312;2022-09-09T13:17:56;11.02;;;6.22;;
62696;SDS011;48761;42.680;23.312;2022-09-09T13:20:24;7.60;;;6.47;;
62696;SDS011;48761;42.680;23.312;2022-09-09T13:22:51;8.10;;;6.43;;
62696;SDS011;48761;42.680;23.312;2022-09-09T13:25:20;8.35;;;6.13;;
62696;SDS011;48761;42.680;23.312;2022-09-09T13:28:23;10.02;;;6.10;;
62696;SDS011;48761;42.680;23.312;2022-09-09T13:30:55;9.50;;;5.97;;
62696;SDS011;48761;42.680;23.312;2022-09-09T13:33:22;8.90;;;6.15;;
62696;SDS011;48761;42.680;23.312;2022-09-09T13:36:02;7.20;;;5.90;;
62696;SDS011;48761;42.680;23.312;2022-09-09T13:38:38;9.68;;;6.03;;
62696;SDS011;48761;42.680;23.312;2022-09-09T13:41:22;9.57;;;6.20;;
62696;SDS011;48761;42.680;23.312;2022-09-09T13:44:19;9.10;;;6.28;;
62696;SDS011;48761;42.680;23.312;2022-09-09T13:47:01;10.65;;;6.57;;
62696;SDS011;48761;42.680;23.312;2022-09-09T13:49:28;8.25;;;6.35;;
62696;SDS011;48761;42.680;23.312;2022-09-09T13:52:11;10.27;;;6.40;;
62696;SDS011;48761;42.680;23.312;2022-09-09T13:54:39;6.95;;;5.85;;
62696;SDS011;48761;42.680;23.312;2022-09-09T13:57:16;8.68;;;6.50;;
62696;SDS011;48761;42.680;23.312;2022-09-09T13:59:54;12.55;;;6.22;;
62696;SDS011;48761;42.680;23.312;2022-09-09T14:02:20;7.93;;;6.20;;
62696;SDS011;48761;42.680;23.312;2022-09-09T14:04:46;8.55;;;6.38;;
62696;SDS011;48761;42.680;23.312;2022-09-09T14:07:12;9.52;;;6.28;;
62696;SDS011;48761;42.680;23.312;2022-09-09T14:09:40;10.15;;;6.40;;
62696;SDS011;48761;42.680;23.312;2022-09-09T14:12:10;8.18;;;6.43;;
62696;SDS011;48761;42.680;23.312;2022-09-09T14:14:37;11.98;;;6.50;;
62696;SDS011;48761;42.680;23.312;2022-09-09T14:17:03;11.10;;;6.63;;
62696;SDS011;48761;42.680;23.312;2022-09-09T14:19:30;13.10;;;7.20;;
62696;SDS011;48761;42.680;23.312;2022-09-09T14:21:56;11.05;;;6.72;;
62696;SDS011;48761;42.680;23.312;2022-09-09T14:24:23;12.45;;;7.25;;
62696;SDS011;48761;42.680;23.312;2022-09-09T14:26:49;13.13;;;6.97;;
62696;SDS011;48761;42.680;23.312;2022-09-09T14:29:15;10.77;;;7.13;;
62696;SDS011;48761;42.680;23.312;2022-09-09T14:31:41;11.98;;;7.20;;
62696;SDS011;48761;42.680;23.312;2022-09-09T14:34:06;13.88;;;7.70;;
62696;SDS011;48761;42.680;23.312;2022-09-09T14:36:32;15.05;;;7.53;;
62696;SDS011;48761;42.680;23.312;2022-09-09T14:38:58;9.32;;;7.30;;
62696;SDS011;48761;42.680;23.312;2022-09-09T14:41:24;13.30;;;7.75;;
62696;SDS011;48761;42.680;23.312;2022-09-09T14:43:50;9.90;;;7.38;;
62696;SDS011;48761;42.680;23.312;2022-09-09T14:46:17;13.48;;;7.80;;
62696;SDS011;48761;42.680;23.312;2022-09-09T14:48:44;10.90;;;6.90;;
62696;SDS011;48761;42.680;23.312;2022-09-09T14:51:12;11.50;;;7.13;;
62696;SDS011;48761;42.680;23.312;2022-09-09T14:53:39;12.48;;;7.65;;
62696;SDS011;48761;42.680;23.312;2022-09-09T14:56:07;11.00;;;6.85;;
62696;SDS011;48761;42.680;23.312;2022-09-09T14:58:34;13.55;;;7.38;;
62696;SDS011;48761;42.680;23.312;2022-09-09T15:01:02;13.85;;;7.82;;
62696;SDS011;48761;42.680;23.312;2022-09-09T15:03:29;18.65;;;8.60;;
62696;SDS011;48761;42.680;23.312;2022-09-09T15:05:55;16.35;;;7.60;;
62696;SDS011;48761;42.680;23.312;2022-09-09T15:08:21;21.45;;;7.97;;
62696;SDS011;48761;42.680;23.312;2022-09-09T15:10:47;14.65;;;7.18;;
62696;SDS011;48761;42.680;23.312;2022-09-09T15:13:14;12.13;;;7.72;;
62696;SDS011;48761;42.680;23.312;2022-09-09T15:15:42;15.60;;;7.93;;
62696;SDS011;48761;42.680;23.312;2022-09-09T15:18:08;12.63;;;7.63;;
62696;SDS011;48761;42.680;23.312;2022-09-09T15:20:35;13.00;;;7.10;;
62696;SDS011;48761;42.680;23.312;2022-09-09T15:23:00;13.27;;;7.90;;
62696;SDS011;48761;42.680;23.312;2022-09-09T15:25:26;16.08;;;7.60;;
62696;SDS011;48761;42.680;23.312;2022-09-09T15:27:52;12.02;;;7.20;;
62696;SDS011;48761;42.680;23.312;2022-09-09T15:30:18;12.02;;;7.53;;
62696;SDS011;48761;42.680;23.312;2022-09-09T15:32:44;12.40;;;7.25;;
62696;SDS011;48761;42.680;23.312;2022-09-09T15:35:10;13.38;;;7.38;;
62696;SDS011;48761;42.680;23.312;2022-09-09T15:37:36;11.85;;;6.88;;
62696;SDS011;48761;42.680;23.312;2022-09-09T15:40:02;11.05;;;6.65;;
62696;SDS011;48761;42.680;23.312;2022-09-09T15:42:28;13.82;;;7.10;;
62696;SDS011;48761;42.680;23.312;2022-09-09T15:44:55;16.02;;;7.78;;
62696;SDS011;48761;42.680;23.312;2022-09-09T15:47:21;13.13;;;7.78;;
62696;SDS011;48761;42.680;23.312;2022-09-09T15:49:47;13.82;;;7.35;;
62696;SDS011;48761;42.680;23.312;2022-09-09T15:52:12;11.15;;;7.30;;
62696;SDS011;48761;42.680;23.312;2022-09-09T15:54:38;11.05;;;7.60;;
62696;SDS011;48761;42.680;23.312;2022-09-09T15:57:05;13.55;;;6.97;;
62696;SDS011;48761;42.680;23.312;2022-09-09T15:59:32;10.50;;;6.82;;
62696;SDS011;48761;42.680;23.312;2022-09-09T16:01:59;11.52;;;7.00;;
62696;SDS011;48761;42.680;23.312;2022-09-09T16:04:26;14.63;;;7.07;;
62696;SDS011;48761;42.680;23.312;2022-09-09T16:06:53;14.30;;;7.22;;
62696;SDS011;48761;42.680;23.312;2022-09-09T16:09:21;10.13;;;6.47;;
62696;SDS011;48761;42.680;23.312;2022-09-09T16:11:47;9.43;;;6.90;;
62696;SDS011;48761;42.680;23.312;2022-09-09T16:14:13;14.50;;;7.43;;
62696;SDS011;48761;42.680;23.312;2022-09-09T16:16:40;13.90;;;7.78;;
62696;SDS011;48761;42.680;23.312;2022-09-09T16:19:07;11.77;;;7.13;;
62696;SDS011;48761;42.680;23.312;2022-09-09T16:21:44;9.57;;;7.38;;
62696;SDS011;48761;42.680;23.312;2022-09-09T16:24:13;10.13;;;7.88;;
62696;SDS011;48761;42.680;23.312;2022-09-09T16:26:42;9.82;;;7.03;;
62696;SDS011;48761;42.680;23.312;2022-09-09T16:29:09;12.15;;;7.53;;
62696;SDS011;48761;42.680;23.312;2022-09-09T16:31:37;10.88;;;6.78;;
62696;SDS011;48761;42.680;23.312;2022-09-09T16:34:03;14.95;;;7.93;;
62696;SDS011;48761;42.680;23.312;2022-09-09T16:36:30;13.40;;;7.25;;
62696;SDS011;48761;42.680;23.312;2022-09-09T16:38:59;11.73;;;7.72;;
62696;SDS011;48761;42.680;23.312;2022-09-09T16:41:26;13.77;;;7.60;;
62696;SDS011;48761;42.680;23.312;2022-09-09T16:44:01;14.20;;;7.55;;
62696;SDS011;48761;42.680;23.312;2022-09-09T16:46:30;16.23;;;7.85;;
62696;SDS011;48761;42.680;23.312;2022-09-09T16:48:57;13.48;;;7.57;;
62696;SDS011;48761;42.680;23.312;2022-09-09T16:51:26;13.07;;;8.13;;
62696;SDS011;48761;42.680;23.312;2022-09-09T16:53:54;15.18;;;8.05;;
62696;SDS011;48761;42.680;23.312;2022-09-09T16:56:22;12.57;;;8.48;;
62696;SDS011;48761;42.680;23.312;2022-09-09T16:58:50;14.07;;;8.82;;